createdAt,value
2018-11-11T00:02:08.521Z,2.83
2018-11-11T00:04:36.989Z,2.60
2018-11-11T00:07:05.689Z,2.53
2018-11-11T00:09:34.162Z,2.33
2018-11-11T00:12:02.657Z,2.50
2018-11-11T00:14:31.165Z,2.13
2018-11-11T00:16:59.626Z,2.33
2018-11-11T00:19:28.081Z,2.50
2018-11-11T00:21:56.502Z,2.60
2018-11-11T00:24:24.946Z,1.97
2018-11-11T00:26:53.399Z,2.40
2018-11-11T00:29:21.847Z,2.23
2018-11-11T00:31:50.277Z,2.70
2018-11-11T00:34:18.724Z,2.60
2018-11-11T00:36:47.174Z,2.50
2018-11-11T00:39:15.702Z,2.23
2018-11-11T00:41:44.113Z,2.13
2018-11-11T00:44:12.583Z,2.23
2018-11-11T00:46:41.059Z,2.20
2018-11-11T00:49:09.700Z,2.43
2018-11-11T00:51:38.184Z,2.80
2018-11-11T00:54:06.621Z,2.03
2018-11-11T00:56:35.109Z,2.37
2018-11-11T00:59:03.527Z,2.10
2018-11-11T01:01:31.960Z,2.47
2018-11-11T01:04:00.385Z,2.50
2018-11-11T01:06:29.189Z,3.03
2018-11-11T01:08:57.633Z,2.30
2018-11-11T01:11:26.059Z,2.40
2018-11-11T01:13:54.587Z,2.50
2018-11-11T01:16:23.042Z,2.40
2018-11-11T01:18:51.469Z,2.57
2018-11-11T01:21:19.949Z,2.50
2018-11-11T01:23:48.388Z,2.80
2018-11-11T01:26:16.846Z,2.73
2018-11-11T01:28:45.278Z,3.30
2018-11-11T01:31:13.729Z,2.70
2018-11-11T01:33:42.153Z,3.00
2018-11-11T01:36:10.609Z,2.90
2018-11-11T01:38:39.048Z,2.73
2018-11-11T01:41:07.498Z,2.83
2018-11-11T01:43:36.375Z,3.33
2018-11-11T01:46:05.249Z,3.80
2018-11-11T01:48:33.681Z,3.13
2018-11-11T01:51:02.285Z,3.30
2018-11-11T01:53:30.722Z,3.30
2018-11-11T01:55:59.209Z,3.20
2018-11-11T01:58:27.650Z,3.07
2018-11-11T02:00:56.125Z,3.57
2018-11-11T02:03:24.553Z,3.13
2018-11-11T02:05:53.045Z,3.17
2018-11-11T02:08:21.514Z,3.60
2018-11-11T02:10:49.979Z,2.80
2018-11-11T02:13:18.413Z,2.77
2018-11-11T02:15:46.883Z,2.80
2018-11-11T02:18:15.351Z,2.70
2018-11-11T02:20:43.738Z,2.40
2018-11-11T02:23:12.169Z,2.17
2018-11-11T02:25:40.584Z,2.30
2018-11-11T02:28:09.035Z,2.10
2018-11-11T02:30:37.481Z,2.70
2018-11-11T02:33:10.926Z,1.97
2018-11-11T02:35:39.358Z,2.30
2018-11-11T02:38:07.793Z,2.67
2018-11-11T02:40:36.213Z,2.77
2018-11-11T02:43:04.694Z,2.40
2018-11-11T02:45:33.122Z,2.40
2018-11-11T02:48:01.539Z,2.37
2018-11-11T02:50:29.978Z,2.93
2018-11-11T02:52:58.427Z,2.87
2018-11-11T02:55:26.832Z,2.73
2018-11-11T02:57:55.273Z,2.50
2018-11-11T03:00:23.706Z,2.70
2018-11-11T03:02:52.142Z,3.00
2018-11-11T03:05:20.733Z,2.73
2018-11-11T03:07:49.177Z,3.20
2018-11-11T03:10:18.079Z,3.50
2018-11-11T03:12:47.554Z,2.90
2018-11-11T03:15:16.482Z,2.37
2018-11-11T03:17:44.957Z,2.87
2018-11-11T03:20:14.017Z,2.93
2018-11-11T03:22:42.526Z,3.20
2018-11-11T03:25:12.293Z,3.20
2018-11-11T03:27:40.957Z,2.43
2018-11-11T03:30:11.361Z,2.43
2018-11-11T03:32:40.094Z,2.50
2018-11-11T03:35:10.386Z,2.43
2018-11-11T03:37:38.890Z,2.30
2018-11-11T03:40:09.788Z,2.67
2018-11-11T03:42:38.254Z,2.33
2018-11-11T03:45:08.166Z,2.20
2018-11-11T03:47:36.629Z,2.30
2018-11-11T03:50:06.202Z,2.47
2018-11-11T03:52:34.761Z,2.00
2018-11-11T03:55:03.189Z,2.60
2018-11-11T03:57:31.624Z,2.00
2018-11-11T04:00:00.077Z,2.00
2018-11-11T04:02:28.522Z,2.20
2018-11-11T04:04:56.980Z,2.90
2018-11-11T04:07:25.453Z,2.53
2018-11-11T04:09:53.897Z,2.93
2018-11-11T04:12:22.361Z,2.50
2018-11-11T04:14:51.344Z,2.53
2018-11-11T04:17:19.818Z,2.70
2018-11-11T04:19:48.265Z,2.33
2018-11-11T04:22:18.847Z,3.20
2018-11-11T04:24:49.594Z,2.27
2018-11-11T04:27:18.385Z,2.87
2018-11-11T04:29:46.884Z,2.70
2018-11-11T04:32:15.334Z,2.63
2018-11-11T04:34:44.074Z,2.30
2018-11-11T04:37:12.493Z,2.30
2018-11-11T04:39:41.545Z,2.50
2018-11-11T04:42:09.983Z,2.50
2018-11-11T04:44:38.448Z,2.77
2018-11-11T04:47:06.942Z,2.40
2018-11-11T04:49:35.401Z,2.10
2018-11-11T04:52:03.855Z,3.00
2018-11-11T04:54:32.314Z,2.50
2018-11-11T04:57:00.738Z,2.70
2018-11-11T04:59:29.171Z,2.70
2018-11-11T05:01:57.582Z,2.30
2018-11-11T05:04:26.067Z,2.70
2018-11-11T05:06:54.513Z,2.17
2018-11-11T05:09:22.962Z,2.30
2018-11-11T05:11:51.389Z,2.10
2018-11-11T05:14:19.860Z,2.60
2018-11-11T05:16:48.316Z,3.40
2018-11-11T05:19:16.764Z,2.60
2018-11-11T05:21:45.249Z,2.33
2018-11-11T05:24:13.657Z,2.53
2018-11-11T05:26:42.125Z,2.20
2018-11-11T05:29:10.861Z,1.83
2018-11-11T05:31:39.284Z,2.33
2018-11-11T05:34:08.844Z,2.60
2018-11-11T05:36:37.269Z,1.93
2018-11-11T05:39:08.630Z,2.23
2018-11-11T05:41:37.105Z,2.80
2018-11-11T05:44:05.685Z,2.43
2018-11-11T05:46:34.145Z,1.90
2018-11-11T05:49:02.706Z,1.93
2018-11-11T05:51:31.181Z,2.30
2018-11-11T05:53:59.614Z,2.57
2018-11-11T05:56:28.074Z,2.13
2018-11-11T05:58:56.510Z,1.93
2018-11-11T06:01:24.961Z,3.67
2018-11-11T06:03:53.439Z,4.60
2018-11-11T06:06:21.849Z,3.10
2018-11-11T06:08:51.117Z,5.70
2018-11-11T06:11:19.613Z,2.70
2018-11-11T06:13:48.049Z,3.67
2018-11-11T06:16:16.557Z,3.87
2018-11-11T06:18:44.978Z,2.00
2018-11-11T06:21:13.411Z,3.37
2018-11-11T06:23:42.314Z,2.30
2018-11-11T06:26:11.102Z,2.10
2018-11-11T06:28:39.531Z,1.57
2018-11-11T06:31:08.082Z,1.40
2018-11-11T06:33:36.512Z,2.10
2018-11-11T06:36:05.146Z,1.83
2018-11-11T06:38:33.582Z,2.03
2018-11-11T06:41:02.082Z,1.37
2018-11-11T06:43:30.535Z,2.83
2018-11-11T06:45:58.975Z,1.00
2018-11-11T06:48:27.390Z,1.50
2018-11-11T06:50:55.866Z,1.33
2018-11-11T06:53:24.313Z,2.40
2018-11-11T06:55:52.777Z,1.47
2018-11-11T06:58:21.231Z,1.30
2018-11-11T07:00:49.735Z,1.40
2018-11-11T07:03:29.163Z,1.20
2018-11-11T07:05:57.670Z,1.07
2018-11-11T07:08:26.086Z,1.00
2018-11-11T07:10:54.526Z,1.60
2018-11-11T07:13:23.264Z,1.10
2018-11-11T07:15:51.842Z,1.10
2018-11-11T07:18:20.321Z,2.63
2018-11-11T07:20:48.850Z,2.10
2018-11-11T07:23:17.330Z,1.00
2018-11-11T07:25:45.823Z,0.70
2018-11-11T07:28:14.256Z,0.67
2018-11-11T07:30:42.717Z,0.60
2018-11-11T07:33:11.137Z,0.87
2018-11-11T07:35:39.719Z,1.17
2018-11-11T07:38:08.215Z,0.80
2018-11-11T07:40:36.653Z,0.73
2018-11-11T07:43:05.361Z,0.87
2018-11-11T07:45:33.802Z,0.70
2018-11-11T07:48:02.272Z,1.30
2018-11-11T07:50:30.705Z,0.67
2018-11-11T07:52:59.175Z,1.20
2018-11-11T07:55:27.603Z,0.80
2018-11-11T07:57:56.038Z,0.63
2018-11-11T08:00:24.484Z,0.80
2018-11-11T08:02:52.940Z,0.70
2018-11-11T08:05:21.410Z,0.57
2018-11-11T08:07:49.869Z,0.60
2018-11-11T08:10:29.490Z,0.50
2018-11-11T08:12:57.933Z,0.63
2018-11-11T08:15:26.366Z,0.70
2018-11-11T08:17:54.789Z,0.57
2018-11-11T08:20:23.206Z,0.60
2018-11-11T08:22:51.646Z,0.80
2018-11-11T08:25:20.149Z,0.90
2018-11-11T08:27:48.530Z,1.00
2018-11-11T08:30:16.997Z,0.70
2018-11-11T08:32:45.440Z,0.83
2018-11-11T08:35:13.901Z,0.60
2018-11-11T08:37:42.334Z,0.50
2018-11-11T08:40:11.073Z,0.70
2018-11-11T08:42:39.540Z,0.60
2018-11-11T08:45:09.821Z,0.60
2018-11-11T08:47:38.252Z,0.30
2018-11-11T08:50:07.582Z,0.50
2018-11-11T08:52:36.165Z,0.50
2018-11-11T08:55:04.713Z,1.07
2018-11-11T08:57:33.169Z,1.40
2018-11-11T09:00:01.643Z,1.60
2018-11-11T09:02:30.086Z,1.53
2018-11-11T09:04:58.818Z,1.00
2018-11-11T09:07:27.184Z,1.10
2018-11-11T09:09:55.758Z,0.70
2018-11-11T09:12:24.666Z,0.60
2018-11-11T09:14:53.190Z,1.30
2018-11-11T09:17:21.674Z,0.53
2018-11-11T09:19:50.084Z,0.80
2018-11-11T09:22:18.509Z,1.10
2018-11-11T09:24:46.941Z,0.60
2018-11-11T09:27:15.347Z,0.63
2018-11-11T09:29:43.873Z,0.70
2018-11-11T09:32:12.274Z,0.63
2018-11-11T09:34:40.722Z,0.70
2018-11-11T09:37:09.150Z,0.80
2018-11-11T09:39:37.611Z,0.70
2018-11-11T09:42:06.270Z,0.90
2018-11-11T09:44:34.717Z,0.90
2018-11-11T09:47:03.142Z,0.57
2018-11-11T09:49:31.604Z,0.83
2018-11-11T09:52:00.048Z,0.70
2018-11-11T09:54:28.488Z,0.80
2018-11-11T09:56:56.917Z,0.70
2018-11-11T09:59:25.376Z,0.97
2018-11-11T10:01:53.859Z,0.57
2018-11-11T10:04:31.730Z,0.90
2018-11-11T10:07:04.708Z,0.70
2018-11-11T10:09:38.378Z,0.80
2018-11-11T10:12:26.769Z,0.97
2018-11-11T10:14:59.384Z,0.70
2018-11-11T10:17:32.687Z,0.63
2018-11-11T10:20:12.581Z,1.07
2018-11-11T10:22:56.110Z,1.30
2018-11-11T10:25:30.768Z,0.80
2018-11-11T10:28:35.709Z,0.80
2018-11-11T10:31:09.433Z,0.80
2018-11-11T10:33:43.308Z,1.10
2018-11-11T10:36:22.837Z,1.10
2018-11-11T10:38:56.473Z,1.23
2018-11-11T10:41:29.222Z,0.80
2018-11-11T10:44:02.871Z,0.90
2018-11-11T10:46:37.259Z,0.60
2018-11-11T10:49:07.937Z,0.80
2018-11-11T10:51:36.718Z,0.97
2018-11-11T10:54:05.714Z,1.10
2018-11-11T10:56:34.167Z,1.43
2018-11-11T10:59:02.579Z,2.20
2018-11-11T11:01:36.362Z,1.20
2018-11-11T11:04:04.856Z,0.80
2018-11-11T11:06:38.489Z,0.87
2018-11-11T11:09:11.839Z,0.57
2018-11-11T11:11:40.827Z,0.80
2018-11-11T11:14:09.291Z,0.90
2018-11-11T11:16:37.770Z,1.00
2018-11-11T11:19:06.422Z,1.20
2018-11-11T11:21:34.922Z,1.17
2018-11-11T11:24:03.384Z,1.00
2018-11-11T11:26:31.909Z,0.97
2018-11-11T11:29:00.314Z,0.70
2018-11-11T11:31:28.832Z,0.93
2018-11-11T11:33:57.264Z,0.83
2018-11-11T11:36:25.937Z,0.87
2018-11-11T11:38:54.354Z,1.10
2018-11-11T11:41:22.944Z,0.70
2018-11-11T11:43:51.371Z,0.97
2018-11-11T11:46:19.781Z,0.87
2018-11-11T11:48:48.220Z,1.13
2018-11-11T11:51:16.652Z,0.97
2018-11-11T11:53:45.065Z,0.70
2018-11-11T11:56:13.506Z,0.80
2018-11-11T11:58:41.922Z,0.80
2018-11-11T12:01:10.478Z,0.90
2018-11-11T12:03:38.890Z,0.80
2018-11-11T12:06:07.309Z,0.90
2018-11-11T12:08:35.840Z,0.90
2018-11-11T12:11:04.286Z,1.10
2018-11-11T12:13:32.721Z,1.00
2018-11-11T12:16:01.273Z,1.10
2018-11-11T12:18:30.369Z,1.00
2018-11-11T12:20:58.744Z,1.23
2018-11-11T12:23:27.239Z,1.10
2018-11-11T12:25:55.671Z,1.07
2018-11-11T12:28:24.142Z,1.20
2018-11-11T12:30:52.642Z,0.90
2018-11-11T12:33:21.038Z,1.20
2018-11-11T12:35:49.458Z,1.00
2018-11-11T12:38:17.907Z,1.17
2018-11-11T12:40:46.301Z,1.17
2018-11-11T12:43:14.778Z,1.23
2018-11-11T12:45:43.188Z,1.37
2018-11-11T12:48:11.632Z,1.17
2018-11-11T12:50:40.074Z,1.50
2018-11-11T12:53:08.510Z,1.03
2018-11-11T12:55:36.931Z,1.20
2018-11-11T12:58:05.824Z,1.13
2018-11-11T13:00:34.309Z,0.90
2018-11-11T13:03:02.741Z,1.00
2018-11-11T13:05:31.162Z,1.40
2018-11-11T13:07:59.602Z,1.23
2018-11-11T13:10:28.018Z,1.20
2018-11-11T13:12:56.407Z,1.60
2018-11-11T13:15:24.886Z,1.20
2018-11-11T13:17:53.385Z,1.23
2018-11-11T13:20:21.816Z,1.27
2018-11-11T13:22:50.364Z,1.00
2018-11-11T13:25:18.669Z,1.33
2018-11-11T13:27:47.106Z,1.00
2018-11-11T13:30:15.757Z,0.80
2018-11-11T13:32:44.205Z,1.23
2018-11-11T13:35:14.739Z,1.37
2018-11-11T13:37:43.229Z,1.27
2018-11-11T13:40:14.205Z,1.43
2018-11-11T13:42:42.677Z,1.63
2018-11-11T13:45:16.222Z,1.40
2018-11-11T13:47:45.681Z,1.23
2018-11-11T13:50:15.585Z,1.93
2018-11-11T13:52:44.547Z,1.77
2018-11-11T13:55:13.623Z,1.27
2018-11-11T13:57:42.792Z,1.60
2018-11-11T14:00:16.001Z,2.03
2018-11-11T14:02:44.489Z,1.37
2018-11-11T14:05:12.942Z,1.80
2018-11-11T14:07:41.349Z,1.47
2018-11-11T14:10:11.001Z,1.53
2018-11-11T14:12:39.677Z,1.40
2018-11-11T14:15:12.613Z,1.83
2018-11-11T14:17:41.389Z,1.70
2018-11-11T14:20:11.391Z,1.43
2018-11-11T14:22:41.157Z,1.20
2018-11-11T14:25:15.083Z,1.10
2018-11-11T14:27:43.602Z,1.50
2018-11-11T14:30:14.543Z,1.47
2018-11-11T14:32:43.105Z,1.10
2018-11-11T14:35:12.066Z,0.97
2018-11-11T14:37:40.635Z,1.07
2018-11-11T14:40:12.157Z,2.80
2018-11-11T14:42:40.923Z,0.97
2018-11-11T14:45:10.653Z,1.13
2018-11-11T14:47:39.494Z,0.90
2018-11-11T14:50:09.001Z,1.00
2018-11-11T14:52:37.533Z,1.10
2018-11-11T14:55:08.507Z,1.37
2018-11-11T14:57:36.920Z,1.73
2018-11-11T15:00:08.462Z,1.40
2018-11-11T15:02:36.899Z,1.00
2018-11-11T15:05:06.981Z,1.20
2018-11-11T15:07:35.413Z,0.73
2018-11-11T15:10:04.283Z,1.20
2018-11-11T15:12:32.743Z,1.23
2018-11-11T15:15:01.177Z,1.60
2018-11-11T15:17:29.623Z,0.97
2018-11-11T15:19:58.479Z,1.10
2018-11-11T15:22:26.709Z,1.20
2018-11-11T15:24:55.114Z,1.10
2018-11-11T15:27:23.568Z,1.23
2018-11-11T15:29:51.971Z,1.40
2018-11-11T15:32:20.421Z,1.07
2018-11-11T15:34:48.862Z,1.43
2018-11-11T15:37:17.317Z,1.40
2018-11-11T15:39:45.736Z,1.70
2018-11-11T15:42:14.195Z,1.53
2018-11-11T15:44:42.633Z,1.23
2018-11-11T15:47:11.070Z,1.57
2018-11-11T15:49:39.466Z,1.40
2018-11-11T15:52:07.911Z,2.03
2018-11-11T15:54:36.333Z,1.33
2018-11-11T15:57:04.827Z,1.80
2018-11-11T15:59:33.249Z,1.93
2018-11-11T16:02:01.693Z,1.77
2018-11-11T16:04:30.130Z,1.50
2018-11-11T16:06:58.609Z,2.00
2018-11-11T16:09:27.001Z,1.50
2018-11-11T16:11:55.429Z,1.60
2018-11-11T16:14:23.881Z,1.10
2018-11-11T16:16:52.337Z,13.10
2018-11-11T16:19:20.803Z,1.40
2018-11-11T16:21:49.253Z,1.77
2018-11-11T16:24:17.705Z,1.40
2018-11-11T16:26:46.158Z,0.97
2018-11-11T16:29:14.838Z,1.50
2018-11-11T16:31:43.287Z,1.60
2018-11-11T16:34:11.729Z,1.40
2018-11-11T16:36:40.233Z,1.63
2018-11-11T16:39:10.169Z,1.80
2018-11-11T16:41:38.782Z,1.40
2018-11-11T16:44:07.265Z,1.20
2018-11-11T16:46:35.786Z,1.53
2018-11-11T16:49:04.259Z,1.30
2018-11-11T16:51:32.827Z,1.47
2018-11-11T16:54:01.291Z,1.77
2018-11-11T16:56:29.682Z,1.70
2018-11-11T16:58:58.145Z,2.10
2018-11-11T17:01:26.578Z,1.70
2018-11-11T17:03:55.029Z,2.13
2018-11-11T17:06:23.462Z,1.57
2018-11-11T17:08:51.922Z,1.40
2018-11-11T17:11:20.384Z,1.70
2018-11-11T17:13:48.854Z,1.60
2018-11-11T17:16:17.315Z,1.83
2018-11-11T17:18:45.794Z,1.60
2018-11-11T17:21:14.252Z,1.33
2018-11-11T17:23:42.692Z,1.57
2018-11-11T17:26:11.109Z,1.60
2018-11-11T17:28:39.542Z,1.60
2018-11-11T17:31:08.157Z,1.40
2018-11-11T17:33:36.615Z,1.43
2018-11-11T17:36:10.930Z,1.63
2018-11-11T17:38:39.393Z,1.50
2018-11-11T17:41:07.820Z,1.80
2018-11-11T17:43:36.306Z,1.20
2018-11-11T17:46:04.957Z,1.67
2018-11-11T17:48:33.429Z,1.77
2018-11-11T17:51:01.850Z,1.50
2018-11-11T17:53:30.274Z,1.37
2018-11-11T17:55:58.745Z,1.83
2018-11-11T17:58:27.145Z,1.50
2018-11-11T18:00:55.614Z,2.07
2018-11-11T18:03:24.117Z,1.60
2018-11-11T18:05:52.507Z,1.97
2018-11-11T18:08:21.584Z,2.60
2018-11-11T18:10:50.167Z,1.83
2018-11-11T18:13:18.499Z,1.80
2018-11-11T18:15:46.966Z,2.67
2018-11-11T18:18:15.384Z,1.70
2018-11-11T18:20:43.845Z,1.10
2018-11-11T18:23:12.241Z,1.20
2018-11-11T18:25:40.678Z,1.47
2018-11-11T18:28:09.122Z,1.30
2018-11-11T18:30:37.640Z,1.50
2018-11-11T18:33:06.174Z,1.53
2018-11-11T18:35:34.614Z,1.20
2018-11-11T18:38:03.050Z,1.80
2018-11-11T18:40:31.525Z,1.47
2018-11-11T18:42:59.963Z,1.27
2018-11-11T18:45:29.545Z,1.40
2018-11-11T18:47:58.192Z,1.10
2018-11-11T18:50:29.018Z,1.00
2018-11-11T18:52:57.488Z,1.10
2018-11-11T18:55:25.995Z,1.00
2018-11-11T18:57:54.528Z,1.30
2018-11-11T19:00:24.301Z,1.53
2018-11-11T19:02:53.470Z,1.13
2018-11-11T19:05:22.566Z,1.20
2018-11-11T19:07:53.986Z,0.93
2018-11-11T19:10:23.769Z,1.10
2018-11-11T19:12:53.560Z,1.40
2018-11-11T19:15:22.370Z,1.30
2018-11-11T19:17:51.558Z,2.03
2018-11-11T19:20:21.362Z,1.53
2018-11-11T19:22:49.823Z,1.57
2018-11-11T19:25:20.373Z,1.80
2018-11-11T19:27:50.015Z,2.03
2018-11-11T19:30:19.541Z,2.13
2018-11-11T19:32:48.486Z,1.97
2018-11-11T19:35:17.244Z,2.70
2018-11-11T19:37:46.942Z,3.57
2018-11-11T19:40:17.652Z,3.00
2018-11-11T19:42:46.313Z,2.80
2018-11-11T19:45:16.081Z,2.53
2018-11-11T19:47:44.670Z,2.53
2018-11-11T19:50:14.510Z,1.70
2018-11-11T19:52:44.403Z,2.50
2018-11-11T19:55:13.484Z,2.07
2018-11-11T19:57:42.210Z,2.83
2018-11-11T20:00:12.792Z,1.40
2018-11-11T20:02:42.496Z,5.33
2018-11-11T20:05:12.170Z,1.73
2018-11-11T20:07:41.090Z,2.20
2018-11-11T20:10:11.241Z,2.00
2018-11-11T20:12:39.729Z,2.73
2018-11-11T20:15:10.786Z,2.20
2018-11-11T20:17:39.448Z,2.33
2018-11-11T20:20:10.257Z,2.00
2018-11-11T20:22:38.819Z,1.83
2018-11-11T20:25:09.197Z,1.80
2018-11-11T20:27:37.775Z,1.80
2018-11-11T20:30:09.993Z,1.93
2018-11-11T20:32:38.936Z,1.77
2018-11-11T20:35:07.757Z,2.33
2018-11-11T20:37:36.239Z,2.90
2018-11-11T20:40:05.698Z,2.30
2018-11-11T20:42:34.201Z,2.30
2018-11-11T20:45:02.882Z,1.73
2018-11-11T20:47:31.309Z,1.60
2018-11-11T20:49:59.705Z,2.03
2018-11-11T20:52:28.145Z,2.40
2018-11-11T20:54:56.550Z,2.67
2018-11-11T20:57:24.986Z,2.57
2018-11-11T20:59:53.498Z,2.23
2018-11-11T21:02:21.921Z,2.23
2018-11-11T21:04:50.322Z,2.27
2018-11-11T21:07:18.800Z,2.33
2018-11-11T21:09:47.181Z,1.73
2018-11-11T21:12:15.629Z,1.73
2018-11-11T21:14:44.110Z,2.10
2018-11-11T21:17:16.106Z,2.20
2018-11-11T21:19:44.520Z,1.93
2018-11-11T21:22:14.810Z,2.23
2018-11-11T21:24:43.261Z,2.20
2018-11-11T21:27:11.755Z,2.50
2018-11-11T21:29:40.298Z,2.63
2018-11-11T21:32:08.765Z,2.27
2018-11-11T21:34:37.396Z,2.23
2018-11-11T21:37:06.055Z,1.97
2018-11-11T21:39:34.500Z,1.80
2018-11-11T21:42:02.929Z,1.80
2018-11-11T21:44:31.360Z,1.60
2018-11-11T21:46:59.782Z,1.77
2018-11-11T21:49:28.215Z,1.80
2018-11-11T21:51:56.658Z,1.90
2018-11-11T21:54:25.041Z,2.10
2018-11-11T21:56:53.490Z,2.23
2018-11-11T21:59:21.914Z,2.20
2018-11-11T22:01:50.322Z,2.10
2018-11-11T22:04:18.786Z,1.63
2018-11-11T22:06:47.185Z,1.90
2018-11-11T22:09:16.916Z,2.00
2018-11-11T22:11:45.453Z,1.90
2018-11-11T22:14:13.827Z,2.87
2018-11-11T22:16:42.288Z,3.70
2018-11-11T22:19:10.715Z,3.80
2018-11-11T22:21:39.138Z,2.67
2018-11-11T22:24:07.654Z,3.83
2018-11-11T22:26:36.141Z,3.87
2018-11-11T22:29:04.722Z,2.50
2018-11-11T22:31:33.187Z,2.63
2018-11-11T22:34:01.710Z,3.23
2018-11-11T22:36:30.177Z,8.67
2018-11-11T22:38:58.680Z,18.87
2018-11-11T22:41:27.190Z,27.60
2018-11-11T22:43:55.697Z,5.40
2018-11-11T22:46:24.187Z,4.60
2018-11-11T22:48:52.710Z,7.03
2018-11-11T22:51:21.217Z,3.40
2018-11-11T22:53:49.730Z,4.87
2018-11-11T22:56:18.174Z,2.90
2018-11-11T22:58:46.645Z,2.07
2018-11-11T23:01:19.030Z,2.00
2018-11-11T23:03:47.422Z,2.00
2018-11-11T23:06:15.985Z,1.90
2018-11-11T23:08:44.411Z,2.20
2018-11-11T23:11:12.869Z,2.10
2018-11-11T23:13:41.298Z,2.00
2018-11-11T23:16:09.876Z,2.07
2018-11-11T23:18:38.209Z,2.30
2018-11-11T23:21:06.650Z,2.07
2018-11-11T23:23:35.114Z,2.60
2018-11-11T23:26:03.584Z,2.73
2018-11-11T23:28:32.161Z,2.17
2018-11-11T23:31:00.583Z,2.13
2018-11-11T23:33:29.121Z,2.00
2018-11-11T23:35:57.561Z,2.27
2018-11-11T23:38:26.049Z,1.90
2018-11-11T23:40:54.546Z,2.50
2018-11-11T23:43:22.957Z,2.77
2018-11-11T23:45:51.433Z,2.47
2018-11-11T23:48:19.934Z,2.40
2018-11-11T23:50:48.425Z,2.70
2018-11-11T23:53:16.862Z,3.00
2018-11-11T23:55:45.366Z,2.67
2018-11-11T23:58:13.794Z,2.40
